sensor_id;sensor_type;location;lat;lon;timestamp;P1;durP1;ratioP1;P2;durP2;ratioP2
31262;SDS011;17892;52.080;9.006;2023-03-29T00:01:56;2.88;;;0.80;;
31262;SDS011;17892;52.080;9.006;2023-03-29T00:04:22;2.78;;;1.00;;
31262;SDS011;17892;52.080;9.006;2023-03-29T00:06:51;3.13;;;1.40;;
31262;SDS011;17892;52.080;9.006;2023-03-29T00:09:18;3.63;;;1.60;;
31262;SDS011;17892;52.080;9.006;2023-03-29T00:11:44;4.95;;;1.40;;
31262;SDS011;17892;52.080;9.006;2023-03-29T00:14:10;3.08;;;1.35;;
31262;SDS011;17892;52.080;9.006;2023-03-29T00:16:37;3.85;;;1.33;;
31262;SDS011;17892;52.080;9.006;2023-03-29T00:19:03;2.47;;;1.27;;
31262;SDS011;17892;52.080;9.006;2023-03-29T00:21:30;3.08;;;1.55;;
31262;SDS011;17892;52.080;9.006;2023-03-29T00:23:56;3.25;;;1.45;;
31262;SDS011;17892;52.080;9.006;2023-03-29T00:26:22;3.03;;;1.23;;
31262;SDS011;17892;52.080;9.006;2023-03-29T00:28:48;2.80;;;1.33;;
31262;SDS011;17892;52.080;9.006;2023-03-29T00:31:15;5.07;;;1.70;;
31262;SDS011;17892;52.080;9.006;2023-03-29T00:33:42;4.35;;;1.52;;
31262;SDS011;17892;52.080;9.006;2023-03-29T00:36:09;3.53;;;1.30;;
31262;SDS011;17892;52.080;9.006;2023-03-29T00:38:36;3.15;;;1.38;;
31262;SDS011;17892;52.080;9.006;2023-03-29T00:41:04;3.35;;;1.20;;
31262;SDS011;17892;52.080;9.006;2023-03-29T00:46:22;2.45;;;1.17;;
31262;SDS011;17892;52.080;9.006;2023-03-29T00:48:50;2.95;;;1.15;;
31262;SDS011;17892;52.080;9.006;2023-03-29T00:51:19;3.42;;;1.10;;
31262;SDS011;17892;52.080;9.006;2023-03-29T00:53:49;3.25;;;1.30;;
31262;SDS011;17892;52.080;9.006;2023-03-29T00:56:21;5.00;;;1.60;;
31262;SDS011;17892;52.080;9.006;2023-03-29T00:59:09;3.00;;;1.10;;
31262;SDS011;17892;52.080;9.006;2023-03-29T01:01:49;2.55;;;1.20;;
31262;SDS011;17892;52.080;9.006;2023-03-29T01:05:04;2.60;;;1.30;;
31262;SDS011;17892;52.080;9.006;2023-03-29T01:07:10;2.20;;;1.00;;
31262;SDS011;17892;52.080;9.006;2023-03-29T01:09:57;2.70;;;1.35;;
31262;SDS011;17892;52.080;9.006;2023-03-29T01:12:42;2.63;;;1.02;;
31262;SDS011;17892;52.080;9.006;2023-03-29T01:15:17;2.88;;;1.40;;
31262;SDS011;17892;52.080;9.006;2023-03-29T01:17:48;2.78;;;1.10;;
31262;SDS011;17892;52.080;9.006;2023-03-29T01:20:17;2.85;;;1.30;;
31262;SDS011;17892;52.080;9.006;2023-03-29T01:22:55;3.60;;;1.38;;
31262;SDS011;17892;52.080;9.006;2023-03-29T01:28:38;4.60;;;1.52;;
31262;SDS011;17892;52.080;9.006;2023-03-29T01:31:23;2.90;;;1.50;;
31262;SDS011;17892;52.080;9.006;2023-03-29T01:33:57;3.38;;;1.60;;
31262;SDS011;17892;52.080;9.006;2023-03-29T01:36:38;2.38;;;1.10;;
31262;SDS011;17892;52.080;9.006;2023-03-29T01:39:13;4.18;;;1.42;;
31262;SDS011;17892;52.080;9.006;2023-03-29T01:41:47;2.80;;;1.30;;
31262;SDS011;17892;52.080;9.006;2023-03-29T01:44:28;3.55;;;1.70;;
31262;SDS011;17892;52.080;9.006;2023-03-29T01:47:26;3.65;;;1.55;;
31262;SDS011;17892;52.080;9.006;2023-03-29T01:52:56;3.83;;;2.22;;
31262;SDS011;17892;52.080;9.006;2023-03-29T01:55:34;2.97;;;1.42;;
31262;SDS011;17892;52.080;9.006;2023-03-29T01:58:04;3.30;;;1.40;;
31262;SDS011;17892;52.080;9.006;2023-03-29T02:00:32;3.80;;;1.90;;
31262;SDS011;17892;52.080;9.006;2023-03-29T02:03:03;3.33;;;2.00;;
31262;SDS011;17892;52.080;9.006;2023-03-29T02:05:34;3.65;;;1.40;;
31262;SDS011;17892;52.080;9.006;2023-03-29T02:08:04;3.35;;;1.70;;
31262;SDS011;17892;52.080;9.006;2023-03-29T02:10:33;3.67;;;1.83;;
31262;SDS011;17892;52.080;9.006;2023-03-29T02:13:00;5.10;;;1.95;;
31262;SDS011;17892;52.080;9.006;2023-03-29T02:15:27;3.60;;;1.88;;
31262;SDS011;17892;52.080;9.006;2023-03-29T02:17:52;4.28;;;1.80;;
31262;SDS011;17892;52.080;9.006;2023-03-29T02:20:22;4.30;;;2.10;;
31262;SDS011;17892;52.080;9.006;2023-03-29T02:23:20;4.43;;;1.95;;
31262;SDS011;17892;52.080;9.006;2023-03-29T02:26:00;4.63;;;2.33;;
31262;SDS011;17892;52.080;9.006;2023-03-29T02:28:30;3.97;;;2.22;;
31262;SDS011;17892;52.080;9.006;2023-03-29T02:39:11;4.35;;;2.38;;
31262;SDS011;17892;52.080;9.006;2023-03-29T02:41:39;5.40;;;2.40;;
31262;SDS011;17892;52.080;9.006;2023-03-29T02:44:10;6.60;;;2.70;;
31262;SDS011;17892;52.080;9.006;2023-03-29T02:46:40;5.50;;;2.65;;
31262;SDS011;17892;52.080;9.006;2023-03-29T02:49:08;5.70;;;2.70;;
31262;SDS011;17892;52.080;9.006;2023-03-29T02:51:35;5.95;;;2.92;;
31262;SDS011;17892;52.080;9.006;2023-03-29T02:54:10;8.73;;;3.25;;
31262;SDS011;17892;52.080;9.006;2023-03-29T02:56:47;6.03;;;2.95;;
31262;SDS011;17892;52.080;9.006;2023-03-29T02:59:19;6.88;;;3.28;;
31262;SDS011;17892;52.080;9.006;2023-03-29T03:01:46;6.60;;;2.70;;
31262;SDS011;17892;52.080;9.006;2023-03-29T03:04:13;7.28;;;2.88;;
31262;SDS011;17892;52.080;9.006;2023-03-29T03:06:39;6.88;;;3.92;;
31262;SDS011;17892;52.080;9.006;2023-03-29T03:09:05;5.28;;;2.97;;
31262;SDS011;17892;52.080;9.006;2023-03-29T03:11:32;6.90;;;3.42;;
31262;SDS011;17892;52.080;9.006;2023-03-29T03:13:58;8.45;;;3.35;;
31262;SDS011;17892;52.080;9.006;2023-03-29T03:16:24;4.63;;;2.60;;
31262;SDS011;17892;52.080;9.006;2023-03-29T03:18:50;6.15;;;3.00;;
31262;SDS011;17892;52.080;9.006;2023-03-29T03:21:17;7.97;;;2.90;;
31262;SDS011;17892;52.080;9.006;2023-03-29T03:23:44;6.15;;;3.03;;
31262;SDS011;17892;52.080;9.006;2023-03-29T03:26:11;5.10;;;2.70;;
31262;SDS011;17892;52.080;9.006;2023-03-29T03:28:38;7.10;;;2.65;;
31262;SDS011;17892;52.080;9.006;2023-03-29T03:31:04;6.47;;;2.83;;
31262;SDS011;17892;52.080;9.006;2023-03-29T03:33:30;5.13;;;2.75;;
31262;SDS011;17892;52.080;9.006;2023-03-29T03:35:56;7.00;;;2.92;;
31262;SDS011;17892;52.080;9.006;2023-03-29T03:38:27;4.85;;;2.83;;
31262;SDS011;17892;52.080;9.006;2023-03-29T03:40:54;7.65;;;3.08;;
31262;SDS011;17892;52.080;9.006;2023-03-29T03:43:20;5.97;;;2.80;;
31262;SDS011;17892;52.080;9.006;2023-03-29T03:45:46;5.72;;;2.92;;
31262;SDS011;17892;52.080;9.006;2023-03-29T03:48:12;6.90;;;2.97;;
31262;SDS011;17892;52.080;9.006;2023-03-29T03:50:38;6.05;;;3.00;;
31262;SDS011;17892;52.080;9.006;2023-03-29T03:53:04;6.97;;;3.20;;
31262;SDS011;17892;52.080;9.006;2023-03-29T03:55:31;8.10;;;3.30;;
31262;SDS011;17892;52.080;9.006;2023-03-29T03:57:57;7.38;;;3.10;;
31262;SDS011;17892;52.080;9.006;2023-03-29T04:00:23;8.18;;;3.70;;
31262;SDS011;17892;52.080;9.006;2023-03-29T04:02:51;7.00;;;3.53;;
31262;SDS011;17892;52.080;9.006;2023-03-29T04:05:18;6.47;;;3.28;;
31262;SDS011;17892;52.080;9.006;2023-03-29T04:07:44;6.97;;;3.47;;
31262;SDS011;17892;52.080;9.006;2023-03-29T04:10:10;6.35;;;3.58;;
31262;SDS011;17892;52.080;9.006;2023-03-29T04:12:37;7.32;;;3.33;;
31262;SDS011;17892;52.080;9.006;2023-03-29T04:15:03;6.68;;;3.40;;
31262;SDS011;17892;52.080;9.006;2023-03-29T04:17:30;6.13;;;3.35;;
31262;SDS011;17892;52.080;9.006;2023-03-29T04:19:55;6.90;;;3.60;;
31262;SDS011;17892;52.080;9.006;2023-03-29T04:22:22;8.80;;;3.67;;
31262;SDS011;17892;52.080;9.006;2023-03-29T04:24:51;6.72;;;3.47;;
31262;SDS011;17892;52.080;9.006;2023-03-29T04:27:17;7.03;;;3.83;;
31262;SDS011;17892;52.080;9.006;2023-03-29T04:29:43;8.02;;;4.05;;
31262;SDS011;17892;52.080;9.006;2023-03-29T04:32:09;8.00;;;3.67;;
31262;SDS011;17892;52.080;9.006;2023-03-29T04:34:35;8.07;;;4.22;;
31262;SDS011;17892;52.080;9.006;2023-03-29T04:37:02;7.18;;;3.80;;
31262;SDS011;17892;52.080;9.006;2023-03-29T04:39:34;7.13;;;3.83;;
31262;SDS011;17892;52.080;9.006;2023-03-29T04:42:01;8.20;;;3.80;;
31262;SDS011;17892;52.080;9.006;2023-03-29T04:44:27;8.18;;;3.90;;
31262;SDS011;17892;52.080;9.006;2023-03-29T04:46:53;8.95;;;3.90;;
31262;SDS011;17892;52.080;9.006;2023-03-29T04:49:19;9.48;;;3.92;;
31262;SDS011;17892;52.080;9.006;2023-03-29T04:51:44;8.02;;;4.07;;
31262;SDS011;17892;52.080;9.006;2023-03-29T04:54:10;7.75;;;4.30;;
31262;SDS011;17892;52.080;9.006;2023-03-29T04:56:36;8.48;;;3.85;;
31262;SDS011;17892;52.080;9.006;2023-03-29T04:59:02;7.18;;;4.15;;
31262;SDS011;17892;52.080;9.006;2023-03-29T05:01:27;8.75;;;4.35;;
31262;SDS011;17892;52.080;9.006;2023-03-29T05:03:53;8.95;;;4.32;;
31262;SDS011;17892;52.080;9.006;2023-03-29T05:06:20;8.23;;;4.35;;
31262;SDS011;17892;52.080;9.006;2023-03-29T05:08:46;7.82;;;4.10;;
31262;SDS011;17892;52.080;9.006;2023-03-29T05:11:12;8.52;;;3.95;;
31262;SDS011;17892;52.080;9.006;2023-03-29T05:13:37;7.55;;;4.50;;
31262;SDS011;17892;52.080;9.006;2023-03-29T05:16:04;7.60;;;3.88;;
31262;SDS011;17892;52.080;9.006;2023-03-29T05:18:31;6.82;;;3.90;;
31262;SDS011;17892;52.080;9.006;2023-03-29T05:20:57;8.38;;;3.88;;
31262;SDS011;17892;52.080;9.006;2023-03-29T05:23:24;8.48;;;4.65;;
31262;SDS011;17892;52.080;9.006;2023-03-29T05:25:50;8.55;;;4.03;;
31262;SDS011;17892;52.080;9.006;2023-03-29T05:28:19;7.38;;;3.70;;
31262;SDS011;17892;52.080;9.006;2023-03-29T05:30:45;6.72;;;3.53;;
31262;SDS011;17892;52.080;9.006;2023-03-29T05:33:11;5.80;;;3.58;;
31262;SDS011;17892;52.080;9.006;2023-03-29T05:35:37;8.13;;;4.28;;
31262;SDS011;17892;52.080;9.006;2023-03-29T05:38:03;8.25;;;4.07;;
31262;SDS011;17892;52.080;9.006;2023-03-29T05:40:30;8.82;;;3.60;;
31262;SDS011;17892;52.080;9.006;2023-03-29T05:42:57;8.77;;;4.32;;
31262;SDS011;17892;52.080;9.006;2023-03-29T05:45:25;6.38;;;3.58;;
31262;SDS011;17892;52.080;9.006;2023-03-29T05:47:53;8.25;;;3.80;;
31262;SDS011;17892;52.080;9.006;2023-03-29T05:50:20;6.47;;;3.72;;
31262;SDS011;17892;52.080;9.006;2023-03-29T05:52:46;6.43;;;3.42;;
31262;SDS011;17892;52.080;9.006;2023-03-29T05:55:11;10.27;;;3.80;;
31262;SDS011;17892;52.080;9.006;2023-03-29T05:57:37;9.43;;;4.05;;
31262;SDS011;17892;52.080;9.006;2023-03-29T06:00:04;7.63;;;3.60;;
31262;SDS011;17892;52.080;9.006;2023-03-29T06:02:44;8.70;;;4.40;;
31262;SDS011;17892;52.080;9.006;2023-03-29T06:05:10;8.25;;;4.40;;
31262;SDS011;17892;52.080;9.006;2023-03-29T06:07:35;6.88;;;3.75;;
31262;SDS011;17892;52.080;9.006;2023-03-29T06:10:02;6.68;;;3.67;;
31262;SDS011;17892;52.080;9.006;2023-03-29T06:12:29;6.97;;;3.88;;
31262;SDS011;17892;52.080;9.006;2023-03-29T06:14:55;7.13;;;4.10;;
31262;SDS011;17892;52.080;9.006;2023-03-29T06:17:26;6.65;;;3.97;;
31262;SDS011;17892;52.080;9.006;2023-03-29T06:19:53;6.88;;;3.60;;
31262;SDS011;17892;52.080;9.006;2023-03-29T06:22:19;9.20;;;4.57;;
31262;SDS011;17892;52.080;9.006;2023-03-29T06:24:44;6.35;;;3.47;;
31262;SDS011;17892;52.080;9.006;2023-03-29T06:27:11;8.10;;;3.85;;
31262;SDS011;17892;52.080;9.006;2023-03-29T06:29:36;5.53;;;3.50;;
31262;SDS011;17892;52.080;9.006;2023-03-29T06:32:02;6.07;;;3.42;;
31262;SDS011;17892;52.080;9.006;2023-03-29T06:34:29;5.45;;;3.03;;
31262;SDS011;17892;52.080;9.006;2023-03-29T06:36:55;6.53;;;3.60;;
31262;SDS011;17892;52.080;9.006;2023-03-29T06:39:21;6.85;;;3.90;;
31262;SDS011;17892;52.080;9.006;2023-03-29T06:41:47;6.32;;;3.88;;
31262;SDS011;17892;52.080;9.006;2023-03-29T06:44:13;8.63;;;4.30;;
31262;SDS011;17892;52.080;9.006;2023-03-29T06:46:41;7.80;;;3.40;;
31262;SDS011;17892;52.080;9.006;2023-03-29T06:49:07;5.10;;;3.05;;
31262;SDS011;17892;52.080;9.006;2023-03-29T06:51:33;7.75;;;4.20;;
31262;SDS011;17892;52.080;9.006;2023-03-29T06:53:58;7.35;;;3.85;;
31262;SDS011;17892;52.080;9.006;2023-03-29T06:56:24;6.75;;;3.55;;
31262;SDS011;17892;52.080;9.006;2023-03-29T06:58:50;6.18;;;3.30;;
31262;SDS011;17892;52.080;9.006;2023-03-29T07:01:16;6.13;;;3.08;;
31262;SDS011;17892;52.080;9.006;2023-03-29T07:03:41;7.85;;;4.25;;
31262;SDS011;17892;52.080;9.006;2023-03-29T07:06:09;5.25;;;3.22;;
31262;SDS011;17892;52.080;9.006;2023-03-29T07:08:36;6.00;;;3.08;;
31262;SDS011;17892;52.080;9.006;2023-03-29T07:11:11;5.57;;;3.17;;
31262;SDS011;17892;52.080;9.006;2023-03-29T07:13:39;5.65;;;3.25;;
31262;SDS011;17892;52.080;9.006;2023-03-29T07:16:06;6.88;;;3.30;;
31262;SDS011;17892;52.080;9.006;2023-03-29T07:18:36;6.15;;;3.05;;
31262;SDS011;17892;52.080;9.006;2023-03-29T07:21:07;4.65;;;2.72;;
31262;SDS011;17892;52.080;9.006;2023-03-29T07:23:35;5.32;;;2.67;;
31262;SDS011;17892;52.080;9.006;2023-03-29T07:26:01;4.68;;;2.50;;
31262;SDS011;17892;52.080;9.006;2023-03-29T07:28:29;5.00;;;2.40;;
31262;SDS011;17892;52.080;9.006;2023-03-29T07:31:05;4.78;;;2.65;;
31262;SDS011;17892;52.080;9.006;2023-03-29T07:33:36;5.03;;;2.55;;
31262;SDS011;17892;52.080;9.006;2023-03-29T07:36:03;5.40;;;2.90;;
31262;SDS011;17892;52.080;9.006;2023-03-29T07:38:30;4.68;;;2.67;;
31262;SDS011;17892;52.080;9.006;2023-03-29T07:40:56;5.63;;;2.50;;
31262;SDS011;17892;52.080;9.006;2023-03-29T07:43:22;6.75;;;3.22;;
31262;SDS011;17892;52.080;9.006;2023-03-29T07:45:49;5.18;;;2.72;;
31262;SDS011;17892;52.080;9.006;2023-03-29T07:48:17;5.72;;;3.22;;
31262;SDS011;17892;52.080;9.006;2023-03-29T07:50:46;4.47;;;2.78;;
31262;SDS011;17892;52.080;9.006;2023-03-29T07:53:12;4.30;;;2.53;;
31262;SDS011;17892;52.080;9.006;2023-03-29T07:55:38;4.43;;;2.63;;
31262;SDS011;17892;52.080;9.006;2023-03-29T07:58:11;5.90;;;2.92;;
31262;SDS011;17892;52.080;9.006;2023-03-29T08:00:38;5.15;;;2.55;;
31262;SDS011;17892;52.080;9.006;2023-03-29T08:03:05;3.78;;;2.17;;
31262;SDS011;17892;52.080;9.006;2023-03-29T08:05:32;4.25;;;2.35;;
31262;SDS011;17892;52.080;9.006;2023-03-29T08:07:58;5.32;;;2.35;;
31262;SDS011;17892;52.080;9.006;2023-03-29T08:10:24;4.88;;;2.63;;
31262;SDS011;17892;52.080;9.006;2023-03-29T08:12:51;7.97;;;2.92;;
31262;SDS011;17892;52.080;9.006;2023-03-29T08:15:17;4.40;;;2.42;;
31262;SDS011;17892;52.080;9.006;2023-03-29T08:17:43;3.72;;;2.10;;
31262;SDS011;17892;52.080;9.006;2023-03-29T08:20:10;5.88;;;2.40;;
31262;SDS011;17892;52.080;9.006;2023-03-29T08:22:39;5.97;;;2.10;;
31262;SDS011;17892;52.080;9.006;2023-03-29T08:25:05;4.57;;;2.38;;
31262;SDS011;17892;52.080;9.006;2023-03-29T08:27:32;4.30;;;2.30;;
31262;SDS011;17892;52.080;9.006;2023-03-29T08:29:59;4.40;;;2.28;;
31262;SDS011;17892;52.080;9.006;2023-03-29T08:32:25;4.40;;;2.47;;
31262;SDS011;17892;52.080;9.006;2023-03-29T08:34:51;6.05;;;3.50;;
31262;SDS011;17892;52.080;9.006;2023-03-29T08:37:17;7.13;;;2.47;;
31262;SDS011;17892;52.080;9.006;2023-03-29T08:39:43;5.55;;;2.47;;
31262;SDS011;17892;52.080;9.006;2023-03-29T08:42:19;3.97;;;1.85;;
31262;SDS011;17892;52.080;9.006;2023-03-29T08:45:18;4.95;;;2.45;;
31262;SDS011;17892;52.080;9.006;2023-03-29T08:48:11;3.88;;;1.80;;
31262;SDS011;17892;52.080;9.006;2023-03-29T08:50:53;4.68;;;2.38;;
31262;SDS011;17892;52.080;9.006;2023-03-29T08:53:35;4.50;;;2.15;;
31262;SDS011;17892;52.080;9.006;2023-03-29T08:56:11;4.82;;;2.30;;
31262;SDS011;17892;52.080;9.006;2023-03-29T08:58:44;5.47;;;2.97;;
31262;SDS011;17892;52.080;9.006;2023-03-29T09:01:12;3.78;;;2.20;;
31262;SDS011;17892;52.080;9.006;2023-03-29T09:03:46;5.00;;;2.45;;
31262;SDS011;17892;52.080;9.006;2023-03-29T09:06:18;5.00;;;2.40;;
31262;SDS011;17892;52.080;9.006;2023-03-29T09:08:46;5.28;;;2.40;;
31262;SDS011;17892;52.080;9.006;2023-03-29T09:23:16;5.53;;;3.08;;
31262;SDS011;17892;52.080;9.006;2023-03-29T09:26:11;4.55;;;2.63;;
31262;SDS011;17892;52.080;9.006;2023-03-29T09:29:00;6.22;;;2.78;;
31262;SDS011;17892;52.080;9.006;2023-03-29T09:31:46;3.90;;;2.20;;
31262;SDS011;17892;52.080;9.006;2023-03-29T09:34:14;4.65;;;2.15;;
31262;SDS011;17892;52.080;9.006;2023-03-29T09:39:27;5.47;;;3.13;;
31262;SDS011;17892;52.080;9.006;2023-03-29T09:42:03;4.95;;;2.95;;
31262;SDS011;17892;52.080;9.006;2023-03-29T09:44:36;5.43;;;3.00;;
31262;SDS011;17892;52.080;9.006;2023-03-29T09:47:46;6.03;;;3.17;;
31262;SDS011;17892;52.080;9.006;2023-03-29T09:50:12;7.20;;;3.30;;
31262;SDS011;17892;52.080;9.006;2023-03-29T09:52:47;7.97;;;3.60;;
31262;SDS011;17892;52.080;9.006;2023-03-29T09:55:14;5.93;;;2.78;;
31262;SDS011;17892;52.080;9.006;2023-03-29T09:57:42;5.72;;;3.13;;
31262;SDS011;17892;52.080;9.006;2023-03-29T10:00:10;5.30;;;3.15;;
31262;SDS011;17892;52.080;9.006;2023-03-29T10:02:38;4.57;;;2.92;;
31262;SDS011;17892;52.080;9.006;2023-03-29T10:05:05;6.88;;;3.28;;
31262;SDS011;17892;52.080;9.006;2023-03-29T10:07:33;6.13;;;2.70;;
31262;SDS011;17892;52.080;9.006;2023-03-29T10:10:17;5.57;;;3.10;;
31262;SDS011;17892;52.080;9.006;2023-03-29T10:12:50;5.75;;;3.20;;
31262;SDS011;17892;52.080;9.006;2023-03-29T10:15:20;8.02;;;3.05;;
31262;SDS011;17892;52.080;9.006;2023-03-29T10:17:47;6.32;;;3.15;;
31262;SDS011;17892;52.080;9.006;2023-03-29T10:20:16;5.25;;;2.80;;
31262;SDS011;17892;52.080;9.006;2023-03-29T10:22:48;5.45;;;2.80;;
31262;SDS011;17892;52.080;9.006;2023-03-29T10:25:23;4.25;;;2.40;;
31262;SDS011;17892;52.080;9.006;2023-03-29T10:28:11;5.78;;;2.58;;
31262;SDS011;17892;52.080;9.006;2023-03-29T10:30:41;4.47;;;2.20;;
31262;SDS011;17892;52.080;9.006;2023-03-29T10:33:16;4.82;;;2.38;;
31262;SDS011;17892;52.080;9.006;2023-03-29T10:35:46;5.57;;;2.47;;
31262;SDS011;17892;52.080;9.006;2023-03-29T10:38:13;4.10;;;2.53;;
31262;SDS011;17892;52.080;9.006;2023-03-29T10:40:46;3.97;;;2.08;;
31262;SDS011;17892;52.080;9.006;2023-03-29T10:43:26;4.07;;;1.92;;
31262;SDS011;17892;52.080;9.006;2023-03-29T10:46:20;4.40;;;2.38;;
31262;SDS011;17892;52.080;9.006;2023-03-29T10:48:45;4.28;;;2.38;;
31262;SDS011;17892;52.080;9.006;2023-03-29T10:51:34;4.90;;;2.30;;
31262;SDS011;17892;52.080;9.006;2023-03-29T10:54:01;4.88;;;2.80;;
31262;SDS011;17892;52.080;9.006;2023-03-29T10:59:43;4.10;;;2.33;;
31262;SDS011;17892;52.080;9.006;2023-03-29T11:05:57;5.20;;;2.60;;
31262;SDS011;17892;52.080;9.006;2023-03-29T11:08:57;5.72;;;3.17;;
31262;SDS011;17892;52.080;9.006;2023-03-29T11:20:15;6.00;;;3.25;;
31262;SDS011;17892;52.080;9.006;2023-03-29T11:22:55;4.38;;;2.72;;
31262;SDS011;17892;52.080;9.006;2023-03-29T11:26:02;4.22;;;2.58;;
31262;SDS011;17892;52.080;9.006;2023-03-29T11:28:47;5.75;;;2.88;;
31262;SDS011;17892;52.080;9.006;2023-03-29T11:31:43;4.80;;;2.47;;
31262;SDS011;17892;52.080;9.006;2023-03-29T11:37:47;6.47;;;3.55;;
31262;SDS011;17892;52.080;9.006;2023-03-29T11:40:49;4.70;;;2.45;;
31262;SDS011;17892;52.080;9.006;2023-03-29T11:43:29;4.35;;;2.72;;
31262;SDS011;17892;52.080;9.006;2023-03-29T11:46:01;6.13;;;3.10;;
31262;SDS011;17892;52.080;9.006;2023-03-29T11:48:57;5.20;;;3.15;;
31262;SDS011;17892;52.080;9.006;2023-03-29T11:51:37;5.30;;;3.20;;
31262;SDS011;17892;52.080;9.006;2023-03-29T11:56:48;4.20;;;2.63;;
31262;SDS011;17892;52.080;9.006;2023-03-29T11:59:29;6.85;;;3.30;;
31262;SDS011;17892;52.080;9.006;2023-03-29T12:05:06;6.72;;;3.78;;
31262;SDS011;17892;52.080;9.006;2023-03-29T12:10:49;5.45;;;3.90;;
31262;SDS011;17892;52.080;9.006;2023-03-29T12:13:43;4.35;;;3.00;;
31262;SDS011;17892;52.080;9.006;2023-03-29T12:18:58;6.22;;;3.92;;
31262;SDS011;17892;52.080;9.006;2023-03-29T12:21:32;5.72;;;3.42;;
31262;SDS011;17892;52.080;9.006;2023-03-29T12:24:00;6.18;;;4.20;;
31262;SDS011;17892;52.080;9.006;2023-03-29T12:40:21;6.47;;;3.83;;
31262;SDS011;17892;52.080;9.006;2023-03-29T12:42:50;6.78;;;4.22;;
31262;SDS011;17892;52.080;9.006;2023-03-29T12:45:32;5.45;;;3.95;;
31262;SDS011;17892;52.080;9.006;2023-03-29T12:48:03;6.45;;;3.65;;
31262;SDS011;17892;52.080;9.006;2023-03-29T12:53:05;6.13;;;3.75;;
31262;SDS011;17892;52.080;9.006;2023-03-29T13:03:47;5.82;;;3.60;;
31262;SDS011;17892;52.080;9.006;2023-03-29T13:06:26;4.97;;;3.13;;
31262;SDS011;17892;52.080;9.006;2023-03-29T13:12:05;5.47;;;3.17;;
31262;SDS011;17892;52.080;9.006;2023-03-29T13:14:43;4.78;;;2.78;;
31262;SDS011;17892;52.080;9.006;2023-03-29T13:17:39;4.70;;;2.90;;
31262;SDS011;17892;52.080;9.006;2023-03-29T13:26:04;6.50;;;4.05;;
31262;SDS011;17892;52.080;9.006;2023-03-29T13:32:02;5.60;;;3.42;;
31262;SDS011;17892;52.080;9.006;2023-03-29T13:37:34;6.80;;;4.10;;
31262;SDS011;17892;52.080;9.006;2023-03-29T13:43:09;5.80;;;4.30;;
31262;SDS011;17892;52.080;9.006;2023-03-29T13:45:42;7.05;;;4.65;;
31262;SDS011;17892;52.080;9.006;2023-03-29T13:56:02;8.98;;;6.25;;
31262;SDS011;17892;52.080;9.006;2023-03-29T13:58:50;7.63;;;4.78;;
31262;SDS011;17892;52.080;9.006;2023-03-29T14:01:26;6.20;;;4.22;;
31262;SDS011;17892;52.080;9.006;2023-03-29T14:04:00;7.10;;;4.47;;
31262;SDS011;17892;52.080;9.006;2023-03-29T14:06:33;7.03;;;4.28;;
31262;SDS011;17892;52.080;9.006;2023-03-29T14:09:01;6.13;;;3.90;;
31262;SDS011;17892;52.080;9.006;2023-03-29T14:11:31;6.13;;;4.30;;
31262;SDS011;17892;52.080;9.006;2023-03-29T14:13:58;5.38;;;3.67;;
31262;SDS011;17892;52.080;9.006;2023-03-29T14:16:27;5.68;;;4.10;;
31262;SDS011;17892;52.080;9.006;2023-03-29T14:19:04;6.80;;;3.85;;
31262;SDS011;17892;52.080;9.006;2023-03-29T14:21:40;6.28;;;3.67;;
31262;SDS011;17892;52.080;9.006;2023-03-29T14:24:09;7.88;;;4.30;;
31262;SDS011;17892;52.080;9.006;2023-03-29T14:26:46;7.78;;;3.70;;
31262;SDS011;17892;52.080;9.006;2023-03-29T14:29:12;6.97;;;3.92;;
31262;SDS011;17892;52.080;9.006;2023-03-29T14:31:39;6.55;;;4.07;;
31262;SDS011;17892;52.080;9.006;2023-03-29T14:34:15;6.78;;;3.97;;
31262;SDS011;17892;52.080;9.006;2023-03-29T14:36:43;5.75;;;3.97;;
31262;SDS011;17892;52.080;9.006;2023-03-29T14:39:16;6.78;;;4.20;;
31262;SDS011;17892;52.080;9.006;2023-03-29T14:41:49;7.22;;;4.80;;
31262;SDS011;17892;52.080;9.006;2023-03-29T14:44:19;7.10;;;5.07;;
31262;SDS011;17892;52.080;9.006;2023-03-29T14:46:48;8.95;;;5.72;;
31262;SDS011;17892;52.080;9.006;2023-03-29T14:49:15;8.65;;;5.07;;
31262;SDS011;17892;52.080;9.006;2023-03-29T14:54:20;7.03;;;4.45;;
31262;SDS011;17892;52.080;9.006;2023-03-29T14:56:50;7.47;;;4.50;;
31262;SDS011;17892;52.080;9.006;2023-03-29T15:01:52;7.45;;;4.97;;
31262;SDS011;17892;52.080;9.006;2023-03-29T15:04:18;7.28;;;4.60;;
31262;SDS011;17892;52.080;9.006;2023-03-29T15:06:44;10.63;;;5.07;;
31262;SDS011;17892;52.080;9.006;2023-03-29T15:09:18;7.47;;;4.88;;
31262;SDS011;17892;52.080;9.006;2023-03-29T15:11:52;8.23;;;4.88;;
31262;SDS011;17892;52.080;9.006;2023-03-29T15:14:19;7.43;;;4.38;;
31262;SDS011;17892;52.080;9.006;2023-03-29T15:16:48;8.60;;;4.72;;
31262;SDS011;17892;52.080;9.006;2023-03-29T15:19:17;7.40;;;4.53;;
31262;SDS011;17892;52.080;9.006;2023-03-29T15:21:49;7.65;;;4.60;;
31262;SDS011;17892;52.080;9.006;2023-03-29T15:24:19;7.18;;;4.70;;
31262;SDS011;17892;52.080;9.006;2023-03-29T15:27:09;6.50;;;4.80;;
31262;SDS011;17892;52.080;9.006;2023-03-29T15:29:40;6.30;;;4.47;;
31262;SDS011;17892;52.080;9.006;2023-03-29T15:32:08;8.48;;;4.32;;
31262;SDS011;17892;52.080;9.006;2023-03-29T15:34:43;7.45;;;4.28;;
31262;SDS011;17892;52.080;9.006;2023-03-29T15:37:10;6.93;;;4.43;;
31262;SDS011;17892;52.080;9.006;2023-03-29T15:39:36;7.15;;;4.18;;
31262;SDS011;17892;52.080;9.006;2023-03-29T15:42:07;6.45;;;4.47;;
31262;SDS011;17892;52.080;9.006;2023-03-29T15:44:34;6.32;;;4.28;;
31262;SDS011;17892;52.080;9.006;2023-03-29T15:47:07;6.72;;;3.78;;
31262;SDS011;17892;52.080;9.006;2023-03-29T15:49:34;5.78;;;3.95;;
31262;SDS011;17892;52.080;9.006;2023-03-29T15:52:00;6.65;;;3.95;;
31262;SDS011;17892;52.080;9.006;2023-03-29T15:54:26;6.35;;;3.20;;
31262;SDS011;17892;52.080;9.006;2023-03-29T15:56:54;6.38;;;4.28;;
31262;SDS011;17892;52.080;9.006;2023-03-29T15:59:26;7.22;;;3.63;;
31262;SDS011;17892;52.080;9.006;2023-03-29T16:01:52;6.68;;;3.92;;
31262;SDS011;17892;52.080;9.006;2023-03-29T16:04:19;7.55;;;4.22;;
31262;SDS011;17892;52.080;9.006;2023-03-29T16:06:47;7.32;;;4.65;;
31262;SDS011;17892;52.080;9.006;2023-03-29T16:09:15;7.93;;;4.82;;
31262;SDS011;17892;52.080;9.006;2023-03-29T16:11:42;6.25;;;4.38;;
31262;SDS011;17892;52.080;9.006;2023-03-29T16:14:12;7.60;;;5.03;;
31262;SDS011;17892;52.080;9.006;2023-03-29T16:16:54;6.82;;;4.68;;
31262;SDS011;17892;52.080;9.006;2023-03-29T16:19:21;8.82;;;5.72;;
31262;SDS011;17892;52.080;9.006;2023-03-29T16:21:49;9.20;;;5.82;;
31262;SDS011;17892;52.080;9.006;2023-03-29T16:24:17;6.70;;;4.50;;
31262;SDS011;17892;52.080;9.006;2023-03-29T16:26:51;11.48;;;5.22;;
31262;SDS011;17892;52.080;9.006;2023-03-29T16:29:18;8.70;;;5.82;;
31262;SDS011;17892;52.080;9.006;2023-03-29T16:31:44;8.63;;;5.28;;
31262;SDS011;17892;52.080;9.006;2023-03-29T16:34:12;9.15;;;5.40;;
31262;SDS011;17892;52.080;9.006;2023-03-29T16:36:40;7.82;;;5.05;;
31262;SDS011;17892;52.080;9.006;2023-03-29T16:39:08;7.50;;;5.13;;
31262;SDS011;17892;52.080;9.006;2023-03-29T16:41:35;7.38;;;4.88;;
31262;SDS011;17892;52.080;9.006;2023-03-29T16:44:01;8.25;;;5.13;;
31262;SDS011;17892;52.080;9.006;2023-03-29T16:46:27;7.07;;;4.65;;
31262;SDS011;17892;52.080;9.006;2023-03-29T16:48:54;7.00;;;5.13;;
31262;SDS011;17892;52.080;9.006;2023-03-29T16:51:22;8.35;;;4.78;;
31262;SDS011;17892;52.080;9.006;2023-03-29T16:53:48;6.45;;;4.45;;
31262;SDS011;17892;52.080;9.006;2023-03-29T16:56:15;7.82;;;4.95;;
31262;SDS011;17892;52.080;9.006;2023-03-29T16:58:44;7.70;;;4.82;;
31262;SDS011;17892;52.080;9.006;2023-03-29T17:01:12;7.25;;;4.50;;
31262;SDS011;17892;52.080;9.006;2023-03-29T17:03:40;9.25;;;5.10;;
31262;SDS011;17892;52.080;9.006;2023-03-29T17:06:08;8.02;;;4.57;;
31262;SDS011;17892;52.080;9.006;2023-03-29T17:08:35;8.93;;;5.00;;